createdAt,value
2018-05-27T00:00:52.340Z,100495.13
2018-05-27T00:03:19.763Z,100491.52
2018-05-27T00:05:47.151Z,100494.06
2018-05-27T00:08:14.544Z,100489.02
2018-05-27T00:10:41.934Z,100487.95
2018-05-27T00:13:09.322Z,100484.98
2018-05-27T00:15:36.790Z,100478.65
2018-05-27T00:18:04.185Z,100478.66
2018-05-27T00:20:31.628Z,100480.70
2018-05-27T00:22:58.999Z,100485.30
2018-05-27T00:25:26.407Z,100479.07
2018-05-27T00:27:53.786Z,100479.77
2018-05-27T00:30:21.182Z,100475.41
2018-05-27T00:32:48.579Z,100472.42
2018-05-27T00:35:15.967Z,100475.44
2018-05-27T00:37:43.363Z,100467.97
2018-05-27T00:40:10.755Z,100474.75
2018-05-27T00:42:38.272Z,100475.27
2018-05-27T00:45:05.662Z,100470.95
2018-05-27T00:47:33.060Z,100473.37
2018-05-27T00:50:00.448Z,100471.48
2018-05-27T00:52:27.839Z,100473.39
2018-05-27T00:54:55.231Z,100474.47
2018-05-27T00:57:22.629Z,100472.86
2018-05-27T00:59:50.020Z,100471.74
2018-05-27T01:02:17.412Z,100471.36
2018-05-27T01:04:44.836Z,100478.80
2018-05-27T01:07:12.215Z,100474.75
2018-05-27T01:09:39.619Z,100482.84
2018-05-27T01:12:07.414Z,100482.59
2018-05-27T01:14:34.805Z,100477.98
2018-05-27T01:17:02.198Z,100483.34
2018-05-27T01:19:29.586Z,100481.05
2018-05-27T01:21:56.978Z,100472.36
2018-05-27T01:24:24.379Z,100473.70
2018-05-27T01:26:51.775Z,100470.41
2018-05-27T01:29:19.158Z,100470.42
2018-05-27T01:31:46.564Z,100466.47
2018-05-27T01:34:13.948Z,100465.09
2018-05-27T01:36:41.336Z,100464.66
2018-05-27T01:39:08.723Z,100463.19
2018-05-27T01:41:36.111Z,100459.11
2018-05-27T01:44:03.511Z,100458.81
2018-05-27T01:46:30.899Z,100456.36
2018-05-27T01:48:58.294Z,100452.81
2018-05-27T01:51:25.678Z,100451.85
2018-05-27T01:53:53.083Z,100445.79
2018-05-27T01:56:20.471Z,100441.30
2018-05-27T01:58:47.863Z,100444.23
2018-05-27T02:01:15.264Z,100436.78
2018-05-27T02:03:42.655Z,100437.45
2018-05-27T02:06:10.047Z,100435.96
2018-05-27T02:08:37.464Z,100430.83
2018-05-27T02:11:04.862Z,100433.79
2018-05-27T02:13:32.251Z,100439.03
2018-05-27T02:15:59.642Z,100426.73
2018-05-27T02:18:27.037Z,100439.73
2018-05-27T02:20:54.435Z,100436.61
2018-05-27T02:23:21.827Z,100448.51
2018-05-27T02:25:49.222Z,100441.73
2018-05-27T02:28:16.615Z,100437.58
2018-05-27T02:30:44.000Z,100435.27
2018-05-27T02:33:11.392Z,100437.53
2018-05-27T02:35:38.775Z,100438.86
2018-05-27T02:38:06.175Z,100441.80
2018-05-27T02:40:33.566Z,100435.83
2018-05-27T02:43:00.959Z,100430.92
2018-05-27T02:45:28.355Z,100431.34
2018-05-27T02:47:55.752Z,100432.80
2018-05-27T02:50:23.289Z,100434.69
2018-05-27T02:52:51.142Z,100434.69
2018-05-27T02:55:18.531Z,100435.52
2018-05-27T02:57:46.071Z,100438.73
2018-05-27T03:00:13.469Z,100439.69
2018-05-27T03:02:40.864Z,100437.09
2018-05-27T03:05:08.260Z,100438.98
2018-05-27T03:07:35.651Z,100429.53
2018-05-27T03:10:03.051Z,100432.12
2018-05-27T03:12:30.468Z,100433.13
2018-05-27T03:14:58.073Z,100430.72
2018-05-27T03:17:25.459Z,100425.31
2018-05-27T03:19:52.845Z,100422.88
2018-05-27T03:22:20.236Z,100425.76
2018-05-27T03:24:47.627Z,100421.70
2018-05-27T03:27:15.022Z,100420.19
2018-05-27T03:29:42.411Z,100416.53
2018-05-27T03:32:09.807Z,100414.23
2018-05-27T03:34:37.195Z,100410.33
2018-05-27T03:37:04.591Z,100411.14
2018-05-27T03:39:31.980Z,100407.22
2018-05-27T03:41:59.366Z,100413.44
2018-05-27T03:44:26.764Z,100415.04
2018-05-27T03:46:54.151Z,100420.86
2018-05-27T03:49:21.554Z,100422.62
2018-05-27T03:51:48.942Z,100421.98
2018-05-27T03:54:16.347Z,100427.93
2018-05-27T03:56:43.734Z,100423.75
2018-05-27T03:59:11.126Z,100432.28
2018-05-27T04:01:38.519Z,100430.52
2018-05-27T04:04:18.074Z,100431.04
2018-05-27T04:06:57.143Z,100436.31
2018-05-27T04:09:24.559Z,100433.50
2018-05-27T04:11:51.952Z,100432.05
2018-05-27T04:14:19.339Z,100432.92
2018-05-27T04:16:46.732Z,100426.75
2018-05-27T04:19:14.120Z,100431.78
2018-05-27T04:21:41.563Z,100428.80
2018-05-27T04:24:08.995Z,100435.41
2018-05-27T04:26:36.395Z,100434.31
2018-05-27T04:29:03.782Z,100434.17
2018-05-27T04:31:31.212Z,100436.47
2018-05-27T04:33:58.599Z,100434.98
2018-05-27T04:36:26.011Z,100439.75
2018-05-27T04:38:53.406Z,100434.20
2018-05-27T04:41:20.786Z,100442.06
2018-05-27T04:43:48.183Z,100439.09
2018-05-27T04:46:15.570Z,100442.31
2018-05-27T04:48:42.972Z,100441.78
2018-05-27T04:51:10.359Z,100441.27
2018-05-27T04:53:37.762Z,100443.56
2018-05-27T04:56:05.155Z,100442.92
2018-05-27T04:58:32.583Z,100439.53
2018-05-27T05:00:59.970Z,100440.78
2018-05-27T05:03:27.375Z,100442.84
2018-05-27T05:05:54.762Z,100442.19
2018-05-27T05:08:22.154Z,100441.95
2018-05-27T05:10:49.865Z,100442.78
2018-05-27T05:13:17.246Z,100443.98
2018-05-27T05:15:44.643Z,100442.91
2018-05-27T05:18:12.031Z,100436.66
2018-05-27T05:20:39.430Z,100441.92
2018-05-27T05:23:06.879Z,100437.31
2018-05-27T05:25:34.510Z,100438.23
2018-05-27T05:28:01.902Z,100436.28
2018-05-27T05:30:29.287Z,100435.04
2018-05-27T05:32:56.678Z,100439.69
2018-05-27T05:35:24.071Z,100441.43
2018-05-27T05:37:51.479Z,100439.62
2018-05-27T05:40:18.896Z,100436.63
2018-05-27T05:42:46.294Z,100439.45
2018-05-27T05:45:13.686Z,100433.61
2018-05-27T05:47:41.095Z,100440.61
2018-05-27T05:50:08.525Z,100437.44
2018-05-27T05:52:35.902Z,100443.75
2018-05-27T05:55:03.300Z,100443.97
2018-05-27T05:57:30.725Z,100447.93
2018-05-27T05:59:58.155Z,100444.74
2018-05-27T06:02:25.554Z,100451.13
2018-05-27T06:04:52.958Z,100451.76
2018-05-27T06:07:20.355Z,100456.14
2018-05-27T06:09:47.739Z,100466.19
2018-05-27T06:12:15.127Z,100463.72
2018-05-27T06:14:42.530Z,100470.09
2018-05-27T06:17:09.926Z,100477.47
2018-05-27T06:19:37.344Z,100474.72
2018-05-27T06:22:04.702Z,100481.70
2018-05-27T06:24:32.119Z,100480.20
2018-05-27T06:26:59.579Z,100484.34
2018-05-27T06:29:26.969Z,100476.44
2018-05-27T06:31:54.359Z,100473.93
2018-05-27T06:34:21.747Z,100480.91
2018-05-27T06:36:49.139Z,100473.63
2018-05-27T06:39:16.539Z,100480.61
2018-05-27T06:41:43.934Z,100473.55
2018-05-27T06:44:11.323Z,100475.48
2018-05-27T06:46:38.744Z,100474.73
2018-05-27T06:49:06.129Z,100470.54
2018-05-27T06:51:33.527Z,100466.19
2018-05-27T06:54:00.915Z,100469.39
2018-05-27T06:56:28.308Z,100466.74
2018-05-27T06:58:55.701Z,100462.70
2018-05-27T07:01:23.088Z,100470.69
2018-05-27T07:03:50.486Z,100472.13
2018-05-27T07:06:17.867Z,100474.37
2018-05-27T07:08:45.271Z,100473.98
2018-05-27T07:11:12.666Z,100470.30
2018-05-27T07:13:40.064Z,100462.69
2018-05-27T07:16:07.467Z,100474.61
2018-05-27T07:18:34.850Z,100468.63
2018-05-27T07:21:02.255Z,100475.05
2018-05-27T07:23:29.661Z,100473.09
2018-05-27T07:25:57.041Z,100469.61
2018-05-27T07:28:24.427Z,100470.27
2018-05-27T07:30:51.819Z,100473.18
2018-05-27T07:33:19.207Z,100466.55
2018-05-27T07:35:46.614Z,100463.91
2018-05-27T07:38:14.015Z,100472.22
2018-05-27T07:40:41.426Z,100470.45
2018-05-27T07:43:08.819Z,100461.82
2018-05-27T07:45:36.223Z,100460.25
2018-05-27T07:48:03.619Z,100463.05
2018-05-27T07:50:31.006Z,100455.75
2018-05-27T07:52:58.402Z,100448.41
2018-05-27T07:55:25.793Z,100450.24
2018-05-27T07:57:53.183Z,100446.49
2018-05-27T08:00:20.570Z,100449.81
2018-05-27T08:02:47.969Z,100443.61
2018-05-27T08:05:15.355Z,100444.44
2018-05-27T08:07:42.750Z,100444.69
2018-05-27T08:10:10.147Z,100439.92
2018-05-27T08:12:37.554Z,100440.16
2018-05-27T08:15:04.939Z,100440.48
2018-05-27T08:17:32.354Z,100442.87
2018-05-27T08:19:59.742Z,100435.86
2018-05-27T08:22:27.115Z,100433.77
2018-05-27T08:24:54.503Z,100425.91
2018-05-27T08:27:21.902Z,100427.86
2018-05-27T08:29:49.304Z,100424.67
2018-05-27T08:32:16.730Z,100428.39
2018-05-27T08:34:44.126Z,100425.33
2018-05-27T08:37:11.521Z,100422.48
2018-05-27T08:39:38.906Z,100435.78
2018-05-27T08:42:06.303Z,100432.17
2018-05-27T08:44:33.686Z,100440.61
2018-05-27T08:47:01.083Z,100430.23
2018-05-27T08:49:28.471Z,100441.53
2018-05-27T08:51:55.863Z,100438.88
2018-05-27T08:54:23.366Z,100446.08
2018-05-27T08:56:50.771Z,100444.47
2018-05-27T08:59:18.164Z,100441.45
2018-05-27T09:01:45.546Z,100447.36
2018-05-27T09:04:12.931Z,100439.05
2018-05-27T09:06:40.322Z,100446.65
2018-05-27T09:09:07.711Z,100445.92
2018-05-27T09:11:35.102Z,100455.61
2018-05-27T09:14:02.495Z,100452.45
2018-05-27T09:16:29.883Z,100451.54
2018-05-27T09:18:57.305Z,100448.22
2018-05-27T09:21:24.711Z,100452.66
2018-05-27T09:23:52.733Z,100450.34
2018-05-27T09:26:20.131Z,100452.30
2018-05-27T09:28:47.523Z,100452.88
2018-05-27T09:31:14.916Z,100446.39
2018-05-27T09:33:42.330Z,100446.71
2018-05-27T09:36:09.743Z,100447.92
2018-05-27T09:38:37.119Z,100450.59
2018-05-27T09:41:04.535Z,100450.80
2018-05-27T09:43:31.915Z,100445.72
2018-05-27T09:45:59.306Z,100441.72
2018-05-27T09:48:26.719Z,100448.40
2018-05-27T09:50:54.105Z,100440.34
2018-05-27T09:53:21.502Z,100433.45
2018-05-27T09:55:48.954Z,100438.89
2018-05-27T09:58:16.363Z,100443.25
2018-05-27T10:00:43.775Z,100435.70
2018-05-27T10:03:11.155Z,100439.17
2018-05-27T10:05:38.551Z,100434.06
2018-05-27T10:08:05.959Z,100427.77
2018-05-27T10:10:33.344Z,100430.26
2018-05-27T10:13:00.783Z,100427.82
2018-05-27T10:15:28.178Z,100423.05
2018-05-27T10:17:55.623Z,100420.10
2018-05-27T10:20:23.014Z,100421.41
2018-05-27T10:22:50.399Z,100426.02
2018-05-27T10:25:17.793Z,100425.08
2018-05-27T10:27:45.187Z,100427.11
2018-05-27T10:30:12.650Z,100422.70
2018-05-27T10:32:40.038Z,100419.99
2018-05-27T10:35:07.448Z,100411.46
2018-05-27T10:37:34.842Z,100410.88
2018-05-27T10:40:02.243Z,100412.97
2018-05-27T10:42:29.643Z,100412.95
2018-05-27T10:44:57.039Z,100415.84
2018-05-27T10:47:24.445Z,100420.11
2018-05-27T10:49:51.830Z,100417.09
2018-05-27T10:52:19.227Z,100417.40
2018-05-27T10:54:46.619Z,100415.42
2018-05-27T10:57:14.031Z,100411.31
2018-05-27T10:59:41.423Z,100421.47
2018-05-27T11:02:08.822Z,100422.53
2018-05-27T11:04:36.220Z,100416.36
2018-05-27T11:07:03.619Z,100422.69
2018-05-27T11:09:31.020Z,100429.02
2018-05-27T11:11:58.419Z,100433.75
2018-05-27T11:14:25.824Z,100433.49
2018-05-27T11:16:53.220Z,100437.00
2018-05-27T11:19:20.899Z,100432.07
2018-05-27T11:21:48.284Z,100423.61
2018-05-27T11:24:16.707Z,100426.20
2018-05-27T11:26:44.103Z,100429.44
2018-05-27T11:29:11.500Z,100434.45
2018-05-27T11:31:38.891Z,100432.69
2018-05-27T11:34:06.415Z,100428.65
2018-05-27T11:36:33.807Z,100418.92
2018-05-27T11:39:01.195Z,100417.08
2018-05-27T11:41:28.588Z,100412.73
2018-05-27T11:43:55.987Z,100414.89
2018-05-27T11:46:23.379Z,100407.30
2018-05-27T11:48:50.779Z,100404.17
2018-05-27T11:51:18.187Z,100410.89
2018-05-27T11:53:46.704Z,100407.72
2018-05-27T11:56:14.079Z,100404.31
2018-05-27T11:58:41.475Z,100396.49
2018-05-27T12:01:08.859Z,100393.04
2018-05-27T12:03:36.263Z,100392.58
2018-05-27T12:06:03.662Z,100382.83
2018-05-27T12:08:31.043Z,100374.14
2018-05-27T12:10:58.447Z,100374.53
2018-05-27T12:13:25.835Z,100370.27
2018-05-27T12:15:53.272Z,100369.67
2018-05-27T12:18:20.622Z,100365.08
2018-05-27T12:20:48.050Z,100372.39
2018-05-27T12:23:15.438Z,100373.61
2018-05-27T12:25:42.943Z,100368.52
2018-05-27T12:28:10.507Z,100368.06
2018-05-27T12:30:37.930Z,100367.59
2018-05-27T12:33:05.340Z,100363.55
2018-05-27T12:35:32.752Z,100366.78
2018-05-27T12:38:00.171Z,100363.91
2018-05-27T12:40:27.563Z,100364.20
2018-05-27T12:42:55.004Z,100369.13
2018-05-27T12:45:22.831Z,100377.86
2018-05-27T12:47:50.238Z,100370.89
2018-05-27T12:50:17.662Z,100378.45
2018-05-27T12:52:45.095Z,100376.70
2018-05-27T12:55:12.487Z,100380.84
2018-05-27T12:57:40.821Z,100375.06
2018-05-27T13:00:08.547Z,100373.20
2018-05-27T13:02:35.922Z,100374.22
2018-05-27T13:05:03.336Z,100373.43
2018-05-27T13:07:30.719Z,100364.64
2018-05-27T13:09:58.110Z,100352.72
2018-05-27T13:12:25.500Z,100350.03
2018-05-27T13:14:52.903Z,100341.44
2018-05-27T13:17:20.300Z,100336.84
2018-05-27T13:19:47.705Z,100331.74
2018-05-27T13:22:15.099Z,100316.50
2018-05-27T13:24:42.495Z,100302.56
2018-05-27T13:27:09.891Z,100303.14
2018-05-27T13:29:37.302Z,100294.77
2018-05-27T13:32:04.711Z,100285.64
2018-05-27T13:34:32.108Z,100282.28
2018-05-27T13:36:59.505Z,100278.86
2018-05-27T13:39:26.967Z,100276.70
2018-05-27T13:41:54.420Z,100286.31
2018-05-27T13:44:21.896Z,100291.70
2018-05-27T13:46:49.284Z,100295.41
2018-05-27T13:49:16.767Z,100303.81
2018-05-27T13:51:44.135Z,100310.66
2018-05-27T13:54:11.543Z,100310.23
2018-05-27T13:56:39.027Z,100315.17
2018-05-27T13:59:06.499Z,100313.49
2018-05-27T14:01:33.943Z,100313.83
2018-05-27T14:04:01.325Z,100306.64
2018-05-27T14:06:28.771Z,100317.25
2018-05-27T14:08:56.163Z,100316.09
2018-05-27T14:11:23.558Z,100322.07
2018-05-27T14:13:50.959Z,100322.94
2018-05-27T14:16:18.343Z,100323.25
2018-05-27T14:18:45.758Z,100318.27
2018-05-27T14:21:13.138Z,100317.63
2018-05-27T14:23:40.863Z,100311.52
2018-05-27T14:26:08.283Z,100310.96
2018-05-27T14:28:35.671Z,100302.77
2018-05-27T14:31:03.071Z,100305.95
2018-05-27T14:33:30.447Z,100303.13
2018-05-27T14:35:57.843Z,100297.34
2018-05-27T14:38:25.365Z,100292.93
2018-05-27T14:40:52.759Z,100295.62
2018-05-27T14:43:20.155Z,100286.40
2018-05-27T14:45:47.540Z,100284.89
2018-05-27T14:48:14.939Z,100283.41
2018-05-27T14:50:42.374Z,100284.28
2018-05-27T14:53:09.789Z,100275.86
2018-05-27T14:55:37.171Z,100279.40
2018-05-27T14:58:06.957Z,100276.31
2018-05-27T15:00:34.363Z,100273.34
2018-05-27T15:03:01.735Z,100275.84
2018-05-27T15:05:29.207Z,100271.28
2018-05-27T15:07:56.739Z,100276.81
2018-05-27T15:10:24.130Z,100282.19
2018-05-27T15:12:51.516Z,100275.91
2018-05-27T15:15:18.911Z,100281.66
2018-05-27T15:17:46.309Z,100281.34
2018-05-27T15:20:13.700Z,100289.14
2018-05-27T15:22:41.118Z,100299.43
2018-05-27T15:25:08.503Z,100309.72
2018-05-27T15:27:36.793Z,100311.16
2018-05-27T15:30:04.182Z,100318.67
2018-05-27T15:32:31.584Z,100327.64
2018-05-27T15:34:58.971Z,100327.84
2018-05-27T15:37:26.363Z,100326.54
2018-05-27T15:39:53.759Z,100330.97
2018-05-27T15:42:21.150Z,100319.13
2018-05-27T15:44:48.543Z,100319.52
2018-05-27T15:47:15.935Z,100317.16
2018-05-27T15:49:43.387Z,100319.42
2018-05-27T15:52:10.822Z,100316.16
2018-05-27T15:54:38.219Z,100314.38
2018-05-27T15:57:05.609Z,100313.36
2018-05-27T15:59:33.003Z,100317.07
2018-05-27T16:02:00.483Z,100320.95
2018-05-27T16:04:27.871Z,100319.58
2018-05-27T16:06:55.362Z,100314.49
2018-05-27T16:09:23.542Z,100314.33
2018-05-27T16:11:50.955Z,100304.98
2018-05-27T16:14:18.432Z,100306.83
2018-05-27T16:16:45.902Z,100307.31
2018-05-27T16:19:13.577Z,100301.35
2018-05-27T16:21:40.973Z,100301.59
2018-05-27T16:24:08.351Z,100303.31
2018-05-27T16:26:35.752Z,100304.23
2018-05-27T16:29:03.179Z,100300.61
2018-05-27T16:31:30.587Z,100305.72
2018-05-27T16:33:57.996Z,100304.76
2018-05-27T16:36:25.397Z,100309.36
2018-05-27T16:38:52.814Z,100313.06
2018-05-27T16:41:20.208Z,100305.37
2018-05-27T16:43:47.590Z,100309.08
2018-05-27T16:46:15.035Z,100309.31
2018-05-27T16:48:42.479Z,100311.77
2018-05-27T16:51:09.911Z,100312.48
2018-05-27T16:53:37.323Z,100307.34
2018-05-27T16:56:04.720Z,100306.13
2018-05-27T16:58:32.123Z,100293.73
2018-05-27T17:00:59.503Z,100290.34
2018-05-27T17:03:26.898Z,100287.92
2018-05-27T17:05:54.300Z,100285.45
2018-05-27T17:08:21.733Z,100291.63
2018-05-27T17:10:49.207Z,100283.47
2018-05-27T17:13:16.790Z,100274.77
2018-05-27T17:15:44.190Z,100261.88
2018-05-27T17:18:11.607Z,100263.67
2018-05-27T17:20:39.024Z,100261.93
2018-05-27T17:23:06.413Z,100259.11
2018-05-27T17:25:33.815Z,100247.89
2018-05-27T17:28:01.203Z,100236.48
2018-05-27T17:30:28.591Z,100228.43
2018-05-27T17:32:55.986Z,100233.88
2018-05-27T17:35:23.383Z,100248.02
2018-05-27T17:37:50.780Z,100276.62
2018-05-27T17:40:18.167Z,100289.11
2018-05-27T17:42:45.567Z,100292.34
2018-05-27T17:45:12.959Z,100282.91
2018-05-27T17:47:40.358Z,100273.17
2018-05-27T17:50:07.763Z,100275.08
2018-05-27T17:52:35.151Z,100282.43
2018-05-27T17:55:02.551Z,100288.16
2018-05-27T17:57:29.999Z,100291.84
2018-05-27T17:59:57.368Z,100279.73
2018-05-27T18:02:24.794Z,100271.59
2018-05-27T18:04:52.179Z,100267.25
2018-05-27T18:07:19.564Z,100269.78
2018-05-27T18:09:46.997Z,100271.81
2018-05-27T18:12:14.355Z,100282.11
2018-05-27T18:14:41.788Z,100283.28
2018-05-27T18:17:09.209Z,100273.84
2018-05-27T18:19:36.624Z,100283.00
2018-05-27T18:22:04.020Z,100284.05
2018-05-27T18:24:31.402Z,100293.16
2018-05-27T18:26:58.799Z,100298.75
2018-05-27T18:29:26.188Z,100298.20
2018-05-27T18:31:53.604Z,100300.68
2018-05-27T18:34:20.971Z,100297.53
2018-05-27T18:36:48.364Z,100295.92
2018-05-27T18:39:15.759Z,100297.98
2018-05-27T18:41:43.147Z,100298.23
2018-05-27T18:44:11.155Z,100297.56
2018-05-27T18:46:38.543Z,100299.03
2018-05-27T18:49:05.939Z,100297.16
2018-05-27T18:51:33.328Z,100289.98
2018-05-27T18:54:00.964Z,100295.81
2018-05-27T18:56:28.351Z,100285.02
2018-05-27T18:58:55.740Z,100284.23
2018-05-27T19:01:23.133Z,100284.55
2018-05-27T19:03:50.518Z,100287.58
2018-05-27T19:06:17.907Z,100291.66
2018-05-27T19:08:45.299Z,100305.92
2018-05-27T19:11:12.692Z,100309.95
2018-05-27T19:13:40.182Z,100318.52
2018-05-27T19:16:07.585Z,100338.41
2018-05-27T19:18:34.973Z,100342.82
2018-05-27T19:21:02.365Z,100343.87
2018-05-27T19:23:29.803Z,100351.60
2018-05-27T19:25:57.198Z,100359.09
2018-05-27T19:28:24.600Z,100351.76
2018-05-27T19:30:51.987Z,100353.91
2018-05-27T19:33:19.393Z,100357.28
2018-05-27T19:35:46.776Z,100362.91
2018-05-27T19:38:14.562Z,100375.41
2018-05-27T19:40:41.951Z,100372.51
2018-05-27T19:43:09.347Z,100378.97
2018-05-27T19:45:36.813Z,100378.30
2018-05-27T19:48:04.199Z,100375.65
2018-05-27T19:50:31.599Z,100370.94
2018-05-27T19:52:58.989Z,100369.56
2018-05-27T19:55:26.563Z,100370.81
2018-05-27T19:57:53.946Z,100375.63
2018-05-27T20:00:21.680Z,100369.90
2018-05-27T20:02:49.071Z,100370.77
2018-05-27T20:05:16.458Z,100370.21
2018-05-27T20:07:43.859Z,100367.95
2018-05-27T20:10:11.250Z,100371.59
2018-05-27T20:12:38.655Z,100366.20
2018-05-27T20:15:06.091Z,100361.23
2018-05-27T20:17:33.443Z,100363.30
2018-05-27T20:20:00.827Z,100364.55
2018-05-27T20:22:28.223Z,100363.88
2018-05-27T20:24:55.620Z,100361.09
2018-05-27T20:27:23.006Z,100360.98
2018-05-27T20:29:50.400Z,100347.41
2018-05-27T20:32:17.787Z,100342.92
2018-05-27T20:34:45.179Z,100333.05
2018-05-27T20:37:12.571Z,100339.42
2018-05-27T20:39:39.978Z,100331.84
2018-05-27T20:42:07.359Z,100327.25
2018-05-27T20:44:34.748Z,100325.89
2018-05-27T20:47:02.147Z,100325.22
2018-05-27T20:49:29.539Z,100324.80
2018-05-27T20:51:56.934Z,100325.78
2018-05-27T20:54:24.319Z,100325.41
2018-05-27T20:56:51.715Z,100324.16
2018-05-27T20:59:19.106Z,100330.15
2018-05-27T21:01:46.512Z,100334.10
2018-05-27T21:04:13.898Z,100340.88
2018-05-27T21:06:41.287Z,100337.38
2018-05-27T21:09:08.679Z,100339.26
2018-05-27T21:11:36.073Z,100335.34
2018-05-27T21:14:03.459Z,100336.95
2018-05-27T21:16:30.851Z,100337.40
2018-05-27T21:18:58.247Z,100339.43
2018-05-27T21:21:25.631Z,100344.03
2018-05-27T21:23:53.029Z,100335.22
2018-05-27T21:26:21.247Z,100348.98
2018-05-27T21:28:48.644Z,100350.05
2018-05-27T21:31:16.031Z,100360.92
2018-05-27T21:33:43.483Z,100361.89
2018-05-27T21:36:10.915Z,100357.70
2018-05-27T21:38:38.306Z,100366.09
2018-05-27T21:41:05.699Z,100370.43
2018-05-27T21:43:33.087Z,100370.71
2018-05-27T21:46:00.510Z,100371.13
2018-05-27T21:48:27.903Z,100365.27
2018-05-27T21:50:55.291Z,100367.16
2018-05-27T21:53:22.683Z,100369.72
2018-05-27T21:55:50.073Z,100365.84
2018-05-27T21:58:17.472Z,100363.38
2018-05-27T22:00:44.879Z,100351.06
2018-05-27T22:03:12.271Z,100354.17
2018-05-27T22:05:39.659Z,100345.64
2018-05-27T22:08:07.043Z,100353.06
2018-05-27T22:10:34.444Z,100352.80
2018-05-27T22:13:01.831Z,100354.84
2018-05-27T22:15:29.319Z,100358.36
2018-05-27T22:17:57.115Z,100359.98
2018-05-27T22:20:24.546Z,100370.13
2018-05-27T22:22:51.919Z,100357.38
2018-05-27T22:25:19.307Z,100359.40
2018-05-27T22:27:46.703Z,100371.69
2018-05-27T22:30:14.086Z,100374.67
2018-05-27T22:32:41.491Z,100375.08
2018-05-27T22:35:08.867Z,100374.28
2018-05-27T22:37:36.266Z,100373.06
2018-05-27T22:40:03.655Z,100376.44
2018-05-27T22:42:31.049Z,100379.94
2018-05-27T22:44:58.440Z,100382.62
2018-05-27T22:47:25.819Z,100379.27
2018-05-27T22:49:53.208Z,100385.17
2018-05-27T22:52:20.599Z,100374.49
2018-05-27T22:54:47.987Z,100377.61
2018-05-27T22:57:15.542Z,100373.47
2018-05-27T22:59:42.935Z,100370.16
2018-05-27T23:02:10.328Z,100371.61
2018-05-27T23:04:37.710Z,100376.21
2018-05-27T23:07:05.108Z,100377.55
2018-05-27T23:09:32.491Z,100371.06
2018-05-27T23:11:59.898Z,100369.03
2018-05-27T23:14:27.287Z,100363.23
2018-05-27T23:16:54.679Z,100359.01
2018-05-27T23:19:22.124Z,100358.36
2018-05-27T23:21:49.523Z,100358.94
2018-05-27T23:24:16.911Z,100368.82
2018-05-27T23:26:44.303Z,100377.89
2018-05-27T23:29:11.699Z,100387.47
2018-05-27T23:31:39.092Z,100385.73
2018-05-27T23:34:06.483Z,100384.09
2018-05-27T23:36:33.875Z,100398.28
2018-05-27T23:39:01.271Z,100395.08
2018-05-27T23:41:28.655Z,100398.84
2018-05-27T23:43:56.067Z,100401.30
2018-05-27T23:46:23.464Z,100390.58
2018-05-27T23:48:50.847Z,100389.09
2018-05-27T23:51:18.239Z,100387.62
2018-05-27T23:53:45.695Z,100392.49
2018-05-27T23:56:13.090Z,100385.71
2018-05-27T23:58:40.483Z,100379.34
